Weather History for Creston, IA

Change the Weather History Date:

Wednesday, June 26, 2013

  Actual Average Record
Temperature  
Mean Temperature 78 °F -  
Max Temperature 87 °F 85 °F 99 °F (1954)
Min Temperature 69 °F 63 °F 45 °F (1958)
Cooling Degree Days 13    
Growing Degree Days 28 (Base 50)    
Moisture  
Dew Point 69 °F    
Average Humidity 72    
Maximum Humidity 100    
Minimum Humidity 40    
Precipitation  
Precipitation 0.00 in - - ()
Sea Level Pressure  
Sea Level Pressure 29.80 in    
Wind  
Wind Speed 10 mph (WNW)    
Max Wind Speed 20 mph    
Max Gust Speed 28 mph    
Visibility 10 miles    
Events      
Averages and records for this station are not official NWS values.
T = Trace of Precipitation, MM = Missing Value Source: NWS Daily Summary

Daily Weather History Graph

Daily Weather History Graph

Search for Another Location

Airport:

Trip Planner

Search our weather history database for the weather conditions in past years. The results will help you decide how hot, cold, wet, or windy it might be!

Date:

Astronomy

Jun. 26, 2013 Rise Set
Actual Time 5:46 AM CDT 8:53 PM CDT
Civil Twilight 5:13 AM CDT 9:27 PM CDT
Nautical Twilight 4:30 AM CDT 10:10 PM CDT
Astronomical Twilight 3:39 AM CDT 11:01 PM CDT
Moon 11:15 PM CDT (6/26) 9:41 AM CDT (6/26)
Length of Visible Light 16h 14m
Length of Day
15h 06m
Waning Gibbous, 85% of the Moon is Illuminated
Jun 26
Waning Gibbous
Jun 29
Last Quarter
Jul 8
New
Jul 15
First Quarter
Jul 22
Full

Hourly Weather History & Observations

Time (CDT) Temp. Heat Index Dew Point Humidity Pressure Visibility Wind Dir Wind Speed Gust Speed Precip Events Conditions
12:15 AM 77.0 °F - 71.6 °F 83% 29.73 in 10.0 mi South 11.5 mph - N/A   Overcast
12:35 AM 78.8 °F - 71.6 °F 78% 29.73 in 10.0 mi South 10.4 mph 18.4 mph N/A   Mostly Cloudy
12:55 AM 77.0 °F - 71.6 °F 83% 29.72 in 10.0 mi South 12.7 mph - N/A   Partly Cloudy
1:15 AM 77.0 °F - 71.6 °F 83% 29.71 in 10.0 mi South 10.4 mph - N/A   Partly Cloudy
1:35 AM 75.2 °F - 71.6 °F 89% 29.71 in 10.0 mi South 8.1 mph - N/A   Clear
1:55 AM 75.2 °F - 71.6 °F 89% 29.70 in 10.0 mi South 9.2 mph - N/A   Clear
2:15 AM 75.2 °F - 71.6 °F 89% 29.69 in 10.0 mi South 8.1 mph - N/A   Clear
2:35 AM 75.2 °F - 71.6 °F 89% 29.69 in 10.0 mi SSE 6.9 mph - N/A   Clear
2:55 AM 73.4 °F - 69.8 °F 88% 29.69 in - South 5.8 mph - N/A   Unknown
3:15 AM 73.4 °F - 69.8 °F 88% 29.68 in 10.0 mi South 5.8 mph - N/A   Clear
3:35 AM 73.4 °F - 69.8 °F 88% 29.68 in 10.0 mi South 9.2 mph - N/A   Clear
3:55 AM 73.4 °F - 69.8 °F 88% 29.69 in 10.0 mi SSW 6.9 mph - N/A   Clear
4:15 AM 71.6 °F - 69.8 °F 94% 29.71 in 10.0 mi South 5.8 mph - N/A   Clear
4:35 AM 71.6 °F - 69.8 °F 94% 29.72 in 10.0 mi South 4.6 mph - N/A   Clear
4:55 AM 71.6 °F - 69.8 °F 94% 29.72 in 9.0 mi South 4.6 mph - N/A   Clear
5:15 AM 71.6 °F - 69.8 °F 94% 29.73 in 9.0 mi SSE 4.6 mph - N/A   Clear
5:35 AM 71.6 °F - 69.8 °F 94% 29.74 in 10.0 mi Calm Calm - N/A   Mostly Cloudy
5:55 AM 71.6 °F - 69.8 °F 94% 29.74 in 7.0 mi SW 4.6 mph - N/A   Mostly Cloudy
6:15 AM 71.6 °F - 69.8 °F 94% 29.74 in 6.0 mi SW 4.6 mph - N/A   Partly Cloudy
6:35 AM 71.6 °F - 69.8 °F 94% 29.75 in 6.0 mi Calm Calm - N/A   Clear
6:55 AM 69.8 °F - 69.8 °F 100% 29.75 in 5.0 mi Calm Calm - N/A   Clear
7:15 AM 71.6 °F - 69.8 °F 94% 29.75 in 6.0 mi SW 4.6 mph - N/A   Clear
7:35 AM 73.4 °F - 71.6 °F 94% 29.76 in 6.0 mi WSW 6.9 mph - N/A   Clear
7:55 AM 75.2 °F - 71.6 °F 89% 29.76 in 7.0 mi WSW 5.8 mph - N/A   Clear
8:15 AM 77.0 °F - 73.4 °F 89% 29.77 in 8.0 mi WSW 8.1 mph - N/A   Clear
8:35 AM 78.8 °F - 73.4 °F 83% 29.77 in 9.0 mi West 11.5 mph - N/A   Clear
8:55 AM 78.8 °F - 75.2 °F 89% 29.77 in - West 10.4 mph - N/A   Clear
9:15 AM 80.6 °F 86.2 °F 75.2 °F 84% 29.78 in 9.0 mi West 11.5 mph - N/A   Clear
9:55 AM 80.6 °F 86.2 °F 75.2 °F 84% 29.78 in 9.0 mi WNW 11.5 mph - N/A   Partly Cloudy
10:15 AM 82.4 °F 90.9 °F 77.0 °F 84% 29.79 in 9.0 mi WNW 12.7 mph - N/A   Clear
10:35 AM 82.4 °F 90.9 °F 77.0 °F 84% 29.79 in 10.0 mi WNW 11.5 mph 17.3 mph N/A   Partly Cloudy
10:55 AM 84.2 °F 92.3 °F 75.2 °F 74% 29.80 in 10.0 mi WNW 13.8 mph - N/A   Clear
11:15 AM 84.2 °F 90.9 °F 73.4 °F 70% 29.80 in 10.0 mi WNW 13.8 mph - N/A   Clear
11:35 AM 84.2 °F 90.9 °F 73.4 °F 70% 29.80 in 10.0 mi WNW 12.7 mph 19.6 mph N/A   Clear
11:55 AM 86.0 °F 93.4 °F 73.4 °F 66% 29.81 in 10.0 mi WNW 13.8 mph - N/A   Clear
12:15 PM 86.0 °F 91.8 °F 71.6 °F 62% 29.82 in 10.0 mi WNW 19.6 mph - N/A   Clear
12:35 PM 86.0 °F 93.4 °F 73.4 °F 66% 29.82 in 10.0 mi WNW 17.3 mph - N/A   Clear
12:55 PM 86.0 °F 91.8 °F 71.6 °F 62% 29.82 in 10.0 mi NW 15.0 mph 23.0 mph N/A   Clear
1:15 PM 86.0 °F 90.4 °F 69.8 °F 58% 29.82 in 10.0 mi NW 16.1 mph 23.0 mph N/A   Clear
1:35 PM 87.8 °F 93.8 °F 71.6 °F 58% 29.82 in 10.0 mi WNW 15.0 mph 21.9 mph N/A   Clear
1:55 PM 87.8 °F 92.6 °F 69.8 °F 55% 29.82 in 10.0 mi WNW 17.3 mph 25.3 mph N/A   Clear
2:15 PM 87.8 °F 90.4 °F 66.2 °F 49% 29.83 in 10.0 mi NW 17.3 mph 27.6 mph N/A   Clear
2:35 PM 87.8 °F 90.4 °F 66.2 °F 49% 29.83 in 10.0 mi NW 18.4 mph 25.3 mph N/A   Clear
2:55 PM 87.8 °F 89.4 °F 64.4 °F 46% 29.83 in 10.0 mi NW 17.3 mph 23.0 mph N/A   Clear
3:15 PM 87.8 °F 89.4 °F 64.4 °F 46% 29.83 in 10.0 mi NW 16.1 mph 25.3 mph N/A   Clear
3:35 PM 87.8 °F 88.5 °F 62.6 °F 43% 29.82 in 10.0 mi NW 16.1 mph 25.3 mph N/A   Clear
3:55 PM 87.8 °F 88.5 °F 62.6 °F 43% 29.83 in 10.0 mi WNW 17.3 mph 26.5 mph N/A   Clear
4:15 PM 87.8 °F 88.5 °F 62.6 °F 43% 29.83 in 10.0 mi WNW 19.6 mph - N/A   Clear
4:35 PM 87.8 °F 88.5 °F 62.6 °F 43% 29.84 in 10.0 mi NW 18.4 mph - N/A   Clear
4:55 PM 87.8 °F 88.5 °F 62.6 °F 43% 29.85 in 10.0 mi NW 16.1 mph 23.0 mph N/A   Clear
5:15 PM 87.8 °F 88.5 °F 62.6 °F 43% 29.84 in 10.0 mi NW 16.1 mph - N/A   Clear
5:35 PM 87.8 °F 87.6 °F 60.8 °F 40% 29.84 in 10.0 mi NNW 16.1 mph 21.9 mph N/A   Clear
5:55 PM 87.8 °F 88.5 °F 62.6 °F 43% 29.84 in 10.0 mi NW 13.8 mph - N/A   Clear
6:15 PM 87.8 °F 89.4 °F 64.4 °F 46% 29.84 in 10.0 mi NW 13.8 mph - N/A   Clear
6:35 PM 87.8 °F 89.4 °F 64.4 °F 46% 29.85 in 10.0 mi NW 11.5 mph - N/A   Clear
6:55 PM 86.0 °F 87.3 °F 64.4 °F 48% 29.85 in 10.0 mi NW 10.4 mph - N/A   Clear
7:15 PM 84.2 °F 86.6 °F 66.2 °F 55% 29.85 in 10.0 mi NW 8.1 mph - N/A   Clear
7:35 PM 84.2 °F 85.6 °F 64.4 °F 51% 29.85 in 10.0 mi NW 6.9 mph - N/A   Clear
7:55 PM 82.4 °F 85.4 °F 68.0 °F 62% 29.85 in 10.0 mi NW 8.1 mph - N/A   Clear
8:15 PM 80.6 °F 82.7 °F 66.2 °F 61% 29.85 in 10.0 mi NW 9.2 mph - N/A   Clear
8:35 PM 78.8 °F - 66.2 °F 65% 29.86 in 10.0 mi WNW 6.9 mph - N/A   Clear
8:55 PM 77.0 °F - 66.2 °F 69% 29.86 in 10.0 mi NW 8.1 mph - N/A   Clear
9:15 PM 77.0 °F - 66.2 °F 69% 29.87 in 10.0 mi NW 8.1 mph - N/A   Clear
9:35 PM 75.2 °F - 66.2 °F 73% 29.87 in 10.0 mi NW 6.9 mph - N/A   Clear
9:55 PM 75.2 °F - 66.2 °F 73% 29.88 in 10.0 mi NW 6.9 mph - N/A   Clear
10:15 PM 75.2 °F - 66.2 °F 73% 29.89 in 10.0 mi NW 5.8 mph - N/A   Clear
10:35 PM 71.6 °F - 64.4 °F 78% 29.90 in 10.0 mi NW 8.1 mph - N/A   Clear
10:55 PM 73.4 °F - 64.4 °F 73% 29.90 in 10.0 mi NW 5.8 mph - N/A   Clear
11:15 PM 73.4 °F - 64.4 °F 73% 29.90 in 10.0 mi NNW 6.9 mph - N/A   Clear
11:35 PM 73.4 °F - 64.4 °F 73% 29.90 in 10.0 mi NW 4.6 mph - N/A   Clear
11:55 PM 73.4 °F - 64.4 °F 73% 29.90 in 10.0 mi NW 4.6 mph - N/A   Clear